sensor_id;sensor_type;location;lat;lon;timestamp;P1;durP1;ratioP1;P2;durP2;ratioP2
38797;SDS011;24546;52.240;16.826;2023-03-29T00:02:19;20.55;;;10.90;;
38797;SDS011;24546;52.240;16.826;2023-03-29T00:07:20;23.65;;;10.55;;
38797;SDS011;24546;52.240;16.826;2023-03-29T00:12:22;25.10;;;11.20;;
38797;SDS011;24546;52.240;16.826;2023-03-29T00:17:23;21.80;;;11.80;;
38797;SDS011;24546;52.240;16.826;2023-03-29T00:22:25;23.65;;;11.02;;
38797;SDS011;24546;52.240;16.826;2023-03-29T00:27:26;21.25;;;11.82;;
38797;SDS011;24546;52.240;16.826;2023-03-29T00:32:27;22.98;;;11.32;;
38797;SDS011;24546;52.240;16.826;2023-03-29T00:37:27;24.75;;;11.27;;
38797;SDS011;24546;52.240;16.826;2023-03-29T00:42:31;26.85;;;13.07;;
38797;SDS011;24546;52.240;16.826;2023-03-29T00:52:34;24.52;;;11.95;;
38797;SDS011;24546;52.240;16.826;2023-03-29T00:57:36;31.85;;;13.95;;
38797;SDS011;24546;52.240;16.826;2023-03-29T01:02:39;30.05;;;14.30;;
38797;SDS011;24546;52.240;16.826;2023-03-29T01:07:44;32.60;;;12.75;;
38797;SDS011;24546;52.240;16.826;2023-03-29T01:13:00;27.88;;;13.88;;
38797;SDS011;24546;52.240;16.826;2023-03-29T01:18:16;29.30;;;13.88;;
38797;SDS011;24546;52.240;16.826;2023-03-29T01:34:01;38.60;;;16.17;;
38797;SDS011;24546;52.240;16.826;2023-03-29T01:39:10;32.35;;;16.05;;
38797;SDS011;24546;52.240;16.826;2023-03-29T01:44:12;37.45;;;18.25;;
38797;SDS011;24546;52.240;16.826;2023-03-29T01:49:22;42.58;;;19.13;;
38797;SDS011;24546;52.240;16.826;2023-03-29T01:54:37;43.25;;;20.48;;
38797;SDS011;24546;52.240;16.826;2023-03-29T01:59:42;40.70;;;20.50;;
38797;SDS011;24546;52.240;16.826;2023-03-29T02:04:46;43.58;;;21.23;;
38797;SDS011;24546;52.240;16.826;2023-03-29T02:09:51;48.42;;;21.83;;
38797;SDS011;24546;52.240;16.826;2023-03-29T02:14:53;47.40;;;22.98;;
38797;SDS011;24546;52.240;16.826;2023-03-29T02:19:58;55.42;;;23.77;;
38797;SDS011;24546;52.240;16.826;2023-03-29T02:25:00;66.90;;;29.05;;
38797;SDS011;24546;52.240;16.826;2023-03-29T02:30:04;71.43;;;30.90;;
38797;SDS011;24546;52.240;16.826;2023-03-29T02:35:08;69.38;;;29.95;;
38797;SDS011;24546;52.240;16.826;2023-03-29T02:40:13;61.47;;;29.67;;
38797;SDS011;24546;52.240;16.826;2023-03-29T02:45:16;71.50;;;32.92;;
38797;SDS011;24546;52.240;16.826;2023-03-29T02:50:19;71.95;;;31.67;;
38797;SDS011;24546;52.240;16.826;2023-03-29T02:55:21;79.15;;;31.98;;
38797;SDS011;24546;52.240;16.826;2023-03-29T03:00:25;71.35;;;31.17;;
38797;SDS011;24546;52.240;16.826;2023-03-29T03:05:26;78.63;;;31.88;;
38797;SDS011;24546;52.240;16.826;2023-03-29T03:10:27;70.70;;;32.58;;
38797;SDS011;24546;52.240;16.826;2023-03-29T03:15:28;71.13;;;31.13;;
38797;SDS011;24546;52.240;16.826;2023-03-29T03:20:30;78.25;;;33.47;;
38797;SDS011;24546;52.240;16.826;2023-03-29T03:25:32;85.75;;;38.10;;
38797;SDS011;24546;52.240;16.826;2023-03-29T03:30:34;84.93;;;40.03;;
38797;SDS011;24546;52.240;16.826;2023-03-29T03:36:13;93.10;;;39.75;;
38797;SDS011;24546;52.240;16.826;2023-03-29T03:41:16;91.28;;;43.45;;
38797;SDS011;24546;52.240;16.826;2023-03-29T03:46:17;90.93;;;42.03;;
38797;SDS011;24546;52.240;16.826;2023-03-29T03:51:19;90.30;;;38.97;;
38797;SDS011;24546;52.240;16.826;2023-03-29T03:56:21;90.43;;;42.00;;
38797;SDS011;24546;52.240;16.826;2023-03-29T04:01:54;87.05;;;42.78;;
38797;SDS011;24546;52.240;16.826;2023-03-29T04:06:57;72.00;;;35.30;;
38797;SDS011;24546;52.240;16.826;2023-03-29T04:12:04;69.50;;;34.75;;
38797;SDS011;24546;52.240;16.826;2023-03-29T04:17:05;70.05;;;32.17;;
38797;SDS011;24546;52.240;16.826;2023-03-29T04:22:25;64.00;;;30.52;;
38797;SDS011;24546;52.240;16.826;2023-03-29T04:27:27;66.20;;;32.58;;
38797;SDS011;24546;52.240;16.826;2023-03-29T04:32:29;59.78;;;30.48;;
38797;SDS011;24546;52.240;16.826;2023-03-29T04:37:35;66.70;;;31.52;;
38797;SDS011;24546;52.240;16.826;2023-03-29T04:42:40;59.17;;;28.83;;
38797;SDS011;24546;52.240;16.826;2023-03-29T04:47:44;58.10;;;26.42;;
38797;SDS011;24546;52.240;16.826;2023-03-29T04:52:50;60.43;;;28.87;;
38797;SDS011;24546;52.240;16.826;2023-03-29T04:57:51;67.97;;;29.92;;
38797;SDS011;24546;52.240;16.826;2023-03-29T05:02:55;66.75;;;30.85;;
38797;SDS011;24546;52.240;16.826;2023-03-29T05:07:57;56.40;;;30.08;;
38797;SDS011;24546;52.240;16.826;2023-03-29T05:13:05;58.13;;;30.33;;
38797;SDS011;24546;52.240;16.826;2023-03-29T05:18:07;64.40;;;32.28;;
38797;SDS011;24546;52.240;16.826;2023-03-29T05:23:09;66.90;;;33.20;;
38797;SDS011;24546;52.240;16.826;2023-03-29T05:28:32;64.80;;;31.25;;
38797;SDS011;24546;52.240;16.826;2023-03-29T05:33:34;48.22;;;26.58;;
38797;SDS011;24546;52.240;16.826;2023-03-29T05:38:36;46.58;;;24.45;;
38797;SDS011;24546;52.240;16.826;2023-03-29T05:43:38;34.65;;;19.63;;
38797;SDS011;24546;52.240;16.826;2023-03-29T05:48:39;29.73;;;16.10;;
38797;SDS011;24546;52.240;16.826;2023-03-29T05:53:41;31.00;;;16.92;;
38797;SDS011;24546;52.240;16.826;2023-03-29T05:58:42;31.95;;;16.52;;
38797;SDS011;24546;52.240;16.826;2023-03-29T06:03:43;36.92;;;18.08;;
38797;SDS011;24546;52.240;16.826;2023-03-29T06:08:46;32.17;;;18.02;;
38797;SDS011;24546;52.240;16.826;2023-03-29T06:14:05;31.08;;;15.75;;
38797;SDS011;24546;52.240;16.826;2023-03-29T06:19:08;33.13;;;17.90;;
38797;SDS011;24546;52.240;16.826;2023-03-29T06:24:11;40.38;;;18.67;;
38797;SDS011;24546;52.240;16.826;2023-03-29T06:29:19;37.22;;;19.10;;
38797;SDS011;24546;52.240;16.826;2023-03-29T06:34:21;36.22;;;19.67;;
38797;SDS011;24546;52.240;16.826;2023-03-29T06:39:49;34.50;;;19.10;;
38797;SDS011;24546;52.240;16.826;2023-03-29T06:45:04;35.65;;;16.88;;
38797;SDS011;24546;52.240;16.826;2023-03-29T06:50:06;35.05;;;18.38;;
38797;SDS011;24546;52.240;16.826;2023-03-29T06:55:17;36.53;;;16.42;;
38797;SDS011;24546;52.240;16.826;2023-03-29T07:00:20;31.27;;;16.30;;
38797;SDS011;24546;52.240;16.826;2023-03-29T07:05:45;26.55;;;14.00;;
38797;SDS011;24546;52.240;16.826;2023-03-29T07:10:49;24.40;;;12.30;;
38797;SDS011;24546;52.240;16.826;2023-03-29T07:16:11;17.70;;;10.10;;
38797;SDS011;24546;52.240;16.826;2023-03-29T07:21:21;21.67;;;11.82;;
38797;SDS011;24546;52.240;16.826;2023-03-29T07:26:23;16.65;;;10.25;;
38797;SDS011;24546;52.240;16.826;2023-03-29T07:31:25;21.60;;;10.60;;
38797;SDS011;24546;52.240;16.826;2023-03-29T07:36:37;19.15;;;10.88;;
38797;SDS011;24546;52.240;16.826;2023-03-29T07:41:39;19.42;;;10.60;;
38797;SDS011;24546;52.240;16.826;2023-03-29T07:46:45;17.50;;;9.88;;
38797;SDS011;24546;52.240;16.826;2023-03-29T07:51:47;16.50;;;9.38;;
38797;SDS011;24546;52.240;16.826;2023-03-29T07:56:48;15.85;;;8.43;;
38797;SDS011;24546;52.240;16.826;2023-03-29T08:02:08;18.40;;;8.95;;
38797;SDS011;24546;52.240;16.826;2023-03-29T08:07:13;16.48;;;8.20;;
38797;SDS011;24546;52.240;16.826;2023-03-29T08:12:35;13.18;;;8.75;;
38797;SDS011;24546;52.240;16.826;2023-03-29T08:17:36;14.15;;;8.38;;
38797;SDS011;24546;52.240;16.826;2023-03-29T08:22:39;14.35;;;8.20;;
38797;SDS011;24546;52.240;16.826;2023-03-29T08:27:49;10.57;;;5.95;;
38797;SDS011;24546;52.240;16.826;2023-03-29T08:33:00;9.43;;;5.90;;
38797;SDS011;24546;52.240;16.826;2023-03-29T08:38:01;12.15;;;7.22;;
38797;SDS011;24546;52.240;16.826;2023-03-29T08:48:38;10.65;;;5.95;;
38797;SDS011;24546;52.240;16.826;2023-03-29T08:53:51;9.40;;;5.40;;
38797;SDS011;24546;52.240;16.826;2023-03-29T08:59:07;10.50;;;5.70;;
38797;SDS011;24546;52.240;16.826;2023-03-29T09:04:19;10.40;;;6.00;;
38797;SDS011;24546;52.240;16.826;2023-03-29T09:09:41;9.35;;;5.72;;
38797;SDS011;24546;52.240;16.826;2023-03-29T09:20:09;10.50;;;5.50;;
38797;SDS011;24546;52.240;16.826;2023-03-29T09:25:49;11.82;;;5.35;;
38797;SDS011;24546;52.240;16.826;2023-03-29T09:31:31;11.88;;;5.70;;
38797;SDS011;24546;52.240;16.826;2023-03-29T09:52:14;8.27;;;5.43;;
38797;SDS011;24546;52.240;16.826;2023-03-29T09:57:24;9.52;;;5.80;;
38797;SDS011;24546;52.240;16.826;2023-03-29T10:02:28;9.77;;;5.32;;
38797;SDS011;24546;52.240;16.826;2023-03-29T10:07:40;11.68;;;4.85;;
38797;SDS011;24546;52.240;16.826;2023-03-29T10:12:48;10.25;;;5.85;;
38797;SDS011;24546;52.240;16.826;2023-03-29T10:17:56;10.60;;;5.22;;
38797;SDS011;24546;52.240;16.826;2023-03-29T10:23:04;9.10;;;5.40;;
38797;SDS011;24546;52.240;16.826;2023-03-29T10:28:07;6.53;;;4.20;;
38797;SDS011;24546;52.240;16.826;2023-03-29T10:33:17;10.77;;;5.03;;
38797;SDS011;24546;52.240;16.826;2023-03-29T10:38:22;7.38;;;4.35;;
38797;SDS011;24546;52.240;16.826;2023-03-29T10:48:35;6.55;;;3.97;;
38797;SDS011;24546;52.240;16.826;2023-03-29T10:53:39;7.95;;;3.90;;
38797;SDS011;24546;52.240;16.826;2023-03-29T11:09:29;6.15;;;3.53;;
38797;SDS011;24546;52.240;16.826;2023-03-29T11:25:29;7.25;;;4.07;;
38797;SDS011;24546;52.240;16.826;2023-03-29T11:40:54;8.88;;;3.60;;
38797;SDS011;24546;52.240;16.826;2023-03-29T11:51:23;9.30;;;3.38;;
38797;SDS011;24546;52.240;16.826;2023-03-29T11:56:41;7.10;;;3.90;;
38797;SDS011;24546;52.240;16.826;2023-03-29T12:01:51;5.25;;;3.15;;
38797;SDS011;24546;52.240;16.826;2023-03-29T12:07:01;7.53;;;3.83;;
38797;SDS011;24546;52.240;16.826;2023-03-29T12:12:14;5.78;;;3.70;;
38797;SDS011;24546;52.240;16.826;2023-03-29T12:17:31;6.72;;;3.28;;
38797;SDS011;24546;52.240;16.826;2023-03-29T12:22:37;6.22;;;3.28;;
38797;SDS011;24546;52.240;16.826;2023-03-29T12:27:43;9.20;;;5.10;;
38797;SDS011;24546;52.240;16.826;2023-03-29T12:38:28;7.68;;;3.80;;
38797;SDS011;24546;52.240;16.826;2023-03-29T12:43:59;8.70;;;4.15;;
38797;SDS011;24546;52.240;16.826;2023-03-29T12:54:27;9.80;;;5.07;;
38797;SDS011;24546;52.240;16.826;2023-03-29T12:59:38;7.82;;;4.55;;
38797;SDS011;24546;52.240;16.826;2023-03-29T13:15:22;9.30;;;5.32;;
38797;SDS011;24546;52.240;16.826;2023-03-29T13:20:34;9.05;;;5.03;;
38797;SDS011;24546;52.240;16.826;2023-03-29T13:31:03;5.60;;;4.20;;
38797;SDS011;24546;52.240;16.826;2023-03-29T13:42:04;7.25;;;4.50;;
38797;SDS011;24546;52.240;16.826;2023-03-29T13:52:34;20.40;;;10.75;;
38797;SDS011;24546;52.240;16.826;2023-03-29T14:02:49;6.80;;;4.15;;
38797;SDS011;24546;52.240;16.826;2023-03-29T14:07:51;12.45;;;5.13;;
38797;SDS011;24546;52.240;16.826;2023-03-29T14:12:54;8.55;;;4.60;;
38797;SDS011;24546;52.240;16.826;2023-03-29T14:17:55;8.68;;;4.53;;
38797;SDS011;24546;52.240;16.826;2023-03-29T14:22:57;7.05;;;3.65;;
38797;SDS011;24546;52.240;16.826;2023-03-29T14:27:58;6.05;;;3.70;;
38797;SDS011;24546;52.240;16.826;2023-03-29T14:32:59;5.97;;;3.42;;
38797;SDS011;24546;52.240;16.826;2023-03-29T14:38:04;8.48;;;4.50;;
38797;SDS011;24546;52.240;16.826;2023-03-29T14:43:06;9.55;;;4.78;;
38797;SDS011;24546;52.240;16.826;2023-03-29T14:48:08;7.20;;;3.75;;
38797;SDS011;24546;52.240;16.826;2023-03-29T14:53:16;9.52;;;5.45;;
38797;SDS011;24546;52.240;16.826;2023-03-29T14:58:27;9.43;;;4.15;;
38797;SDS011;24546;52.240;16.826;2023-03-29T15:03:40;6.20;;;3.25;;
38797;SDS011;24546;52.240;16.826;2023-03-29T15:08:49;6.40;;;3.53;;
38797;SDS011;24546;52.240;16.826;2023-03-29T15:13:51;8.18;;;4.20;;
38797;SDS011;24546;52.240;16.826;2023-03-29T15:19:00;7.85;;;4.57;;
38797;SDS011;24546;52.240;16.826;2023-03-29T15:24:02;3.72;;;2.70;;
38797;SDS011;24546;52.240;16.826;2023-03-29T15:34:09;5.43;;;2.97;;
38797;SDS011;24546;52.240;16.826;2023-03-29T15:39:15;4.38;;;2.33;;
38797;SDS011;24546;52.240;16.826;2023-03-29T15:44:32;3.40;;;2.13;;
38797;SDS011;24546;52.240;16.826;2023-03-29T15:49:35;3.33;;;2.13;;
38797;SDS011;24546;52.240;16.826;2023-03-29T15:54:36;5.55;;;2.60;;
38797;SDS011;24546;52.240;16.826;2023-03-29T15:59:37;4.90;;;2.75;;
38797;SDS011;24546;52.240;16.826;2023-03-29T16:04:38;4.53;;;2.42;;
38797;SDS011;24546;52.240;16.826;2023-03-29T16:09:43;5.82;;;3.38;;
38797;SDS011;24546;52.240;16.826;2023-03-29T16:14:45;6.70;;;3.30;;
38797;SDS011;24546;52.240;16.826;2023-03-29T16:19:46;10.45;;;6.55;;
38797;SDS011;24546;52.240;16.826;2023-03-29T16:24:47;11.15;;;6.25;;
38797;SDS011;24546;52.240;16.826;2023-03-29T16:29:48;10.20;;;4.65;;
38797;SDS011;24546;52.240;16.826;2023-03-29T16:34:49;10.55;;;5.28;;
38797;SDS011;24546;52.240;16.826;2023-03-29T16:39:51;6.72;;;3.38;;
38797;SDS011;24546;52.240;16.826;2023-03-29T16:44:52;4.18;;;2.70;;
38797;SDS011;24546;52.240;16.826;2023-03-29T16:49:53;7.13;;;4.13;;
38797;SDS011;24546;52.240;16.826;2023-03-29T16:54:55;8.68;;;4.28;;
38797;SDS011;24546;52.240;16.826;2023-03-29T16:59:56;5.30;;;3.95;;
38797;SDS011;24546;52.240;16.826;2023-03-29T17:04:57;7.68;;;4.95;;
38797;SDS011;24546;52.240;16.826;2023-03-29T17:09:57;17.95;;;11.57;;
38797;SDS011;24546;52.240;16.826;2023-03-29T17:14:58;16.23;;;10.20;;
38797;SDS011;24546;52.240;16.826;2023-03-29T17:20:00;13.70;;;8.27;;
38797;SDS011;24546;52.240;16.826;2023-03-29T17:25:01;9.18;;;4.95;;
38797;SDS011;24546;52.240;16.826;2023-03-29T17:30:06;11.98;;;7.20;;
38797;SDS011;24546;52.240;16.826;2023-03-29T17:35:08;11.52;;;6.07;;
38797;SDS011;24546;52.240;16.826;2023-03-29T17:40:09;14.65;;;7.85;;
38797;SDS011;24546;52.240;16.826;2023-03-29T17:45:13;14.05;;;7.75;;
38797;SDS011;24546;52.240;16.826;2023-03-29T17:50:15;9.95;;;6.03;;
38797;SDS011;24546;52.240;16.826;2023-03-29T17:55:16;10.93;;;6.55;;
38797;SDS011;24546;52.240;16.826;2023-03-29T18:00:18;9.20;;;5.63;;
38797;SDS011;24546;52.240;16.826;2023-03-29T18:05:19;14.85;;;7.95;;
38797;SDS011;24546;52.240;16.826;2023-03-29T18:10:20;11.82;;;7.00;;
38797;SDS011;24546;52.240;16.826;2023-03-29T18:15:21;9.50;;;5.70;;
38797;SDS011;24546;52.240;16.826;2023-03-29T18:20:22;11.38;;;6.18;;
38797;SDS011;24546;52.240;16.826;2023-03-29T18:25:23;7.30;;;4.38;;
38797;SDS011;24546;52.240;16.826;2023-03-29T18:30:24;7.85;;;4.32;;
38797;SDS011;24546;52.240;16.826;2023-03-29T18:35:25;8.43;;;4.82;;
38797;SDS011;24546;52.240;16.826;2023-03-29T18:40:26;7.38;;;4.20;;
38797;SDS011;24546;52.240;16.826;2023-03-29T18:45:27;7.88;;;4.00;;
38797;SDS011;24546;52.240;16.826;2023-03-29T18:50:29;8.30;;;5.00;;
38797;SDS011;24546;52.240;16.826;2023-03-29T18:55:31;13.55;;;7.70;;
38797;SDS011;24546;52.240;16.826;2023-03-29T19:00:32;15.32;;;10.60;;
38797;SDS011;24546;52.240;16.826;2023-03-29T19:05:36;14.95;;;7.85;;
38797;SDS011;24546;52.240;16.826;2023-03-29T19:10:41;18.02;;;12.18;;
38797;SDS011;24546;52.240;16.826;2023-03-29T19:15:42;15.48;;;8.52;;
38797;SDS011;24546;52.240;16.826;2023-03-29T19:20:46;17.55;;;10.13;;
38797;SDS011;24546;52.240;16.826;2023-03-29T19:25:54;16.10;;;9.60;;
38797;SDS011;24546;52.240;16.826;2023-03-29T19:31:00;18.85;;;10.15;;
38797;SDS011;24546;52.240;16.826;2023-03-29T19:36:02;14.65;;;8.18;;
38797;SDS011;24546;52.240;16.826;2023-03-29T19:41:04;13.27;;;9.32;;
38797;SDS011;24546;52.240;16.826;2023-03-29T19:46:10;16.03;;;9.97;;
38797;SDS011;24546;52.240;16.826;2023-03-29T19:51:11;17.35;;;10.80;;
38797;SDS011;24546;52.240;16.826;2023-03-29T19:56:13;16.63;;;10.85;;
38797;SDS011;24546;52.240;16.826;2023-03-29T20:01:14;17.55;;;10.40;;
38797;SDS011;24546;52.240;16.826;2023-03-29T20:06:20;20.13;;;11.98;;
38797;SDS011;24546;52.240;16.826;2023-03-29T20:11:21;19.45;;;11.50;;
38797;SDS011;24546;52.240;16.826;2023-03-29T20:16:23;19.65;;;11.50;;
38797;SDS011;24546;52.240;16.826;2023-03-29T20:21:25;20.00;;;12.00;;
38797;SDS011;24546;52.240;16.826;2023-03-29T20:26:26;20.27;;;11.57;;
38797;SDS011;24546;52.240;16.826;2023-03-29T20:31:27;21.25;;;12.02;;
38797;SDS011;24546;52.240;16.826;2023-03-29T20:36:29;22.60;;;13.10;;
38797;SDS011;24546;52.240;16.826;2023-03-29T20:41:30;21.80;;;13.07;;
38797;SDS011;24546;52.240;16.826;2023-03-29T20:46:33;22.45;;;12.35;;
38797;SDS011;24546;52.240;16.826;2023-03-29T20:51:34;23.05;;;13.90;;
38797;SDS011;24546;52.240;16.826;2023-03-29T20:56:36;20.17;;;12.10;;
38797;SDS011;24546;52.240;16.826;2023-03-29T21:01:38;19.40;;;12.75;;
38797;SDS011;24546;52.240;16.826;2023-03-29T21:06:39;25.10;;;12.95;;
38797;SDS011;24546;52.240;16.826;2023-03-29T21:11:40;20.80;;;12.35;;
38797;SDS011;24546;52.240;16.826;2023-03-29T21:16:41;23.77;;;14.10;;
38797;SDS011;24546;52.240;16.826;2023-03-29T21:21:43;23.92;;;14.45;;
38797;SDS011;24546;52.240;16.826;2023-03-29T21:26:44;24.75;;;14.45;;
38797;SDS011;24546;52.240;16.826;2023-03-29T21:31:45;24.23;;;15.05;;
38797;SDS011;24546;52.240;16.826;2023-03-29T21:36:46;25.95;;;16.25;;
38797;SDS011;24546;52.240;16.826;2023-03-29T21:41:47;32.58;;;17.50;;
38797;SDS011;24546;52.240;16.826;2023-03-29T21:46:48;34.08;;;17.75;;
38797;SDS011;24546;52.240;16.826;2023-03-29T21:51:49;25.67;;;15.63;;
38797;SDS011;24546;52.240;16.826;2023-03-29T21:56:50;31.80;;;17.15;;
38797;SDS011;24546;52.240;16.826;2023-03-29T22:01:51;31.92;;;16.95;;
38797;SDS011;24546;52.240;16.826;2023-03-29T22:06:52;30.90;;;16.67;;
38797;SDS011;24546;52.240;16.826;2023-03-29T22:11:53;29.42;;;17.63;;
38797;SDS011;24546;52.240;16.826;2023-03-29T22:16:54;29.50;;;17.75;;
38797;SDS011;24546;52.240;16.826;2023-03-29T22:21:55;27.70;;;15.88;;
38797;SDS011;24546;52.240;16.826;2023-03-29T22:27:00;32.03;;;17.90;;
38797;SDS011;24546;52.240;16.826;2023-03-29T22:32:02;29.10;;;17.80;;
38797;SDS011;24546;52.240;16.826;2023-03-29T22:37:03;26.67;;;15.68;;
38797;SDS011;24546;52.240;16.826;2023-03-29T22:42:04;27.83;;;16.33;;
38797;SDS011;24546;52.240;16.826;2023-03-29T22:47:06;23.83;;;14.50;;
38797;SDS011;24546;52.240;16.826;2023-03-29T22:52:07;23.23;;;13.38;;
38797;SDS011;24546;52.240;16.826;2023-03-29T22:57:08;19.85;;;12.55;;
38797;SDS011;24546;52.240;16.826;2023-03-29T23:02:09;16.52;;;11.43;;
38797;SDS011;24546;52.240;16.826;2023-03-29T23:07:10;17.95;;;11.27;;
38797;SDS011;24546;52.240;16.826;2023-03-29T23:12:11;15.77;;;10.52;;
38797;SDS011;24546;52.240;16.826;2023-03-29T23:17:12;17.45;;;10.73;;
38797;SDS011;24546;52.240;16.826;2023-03-29T23:22:13;17.05;;;11.38;;
38797;SDS011;24546;52.240;16.826;2023-03-29T23:27:14;15.60;;;10.18;;
38797;SDS011;24546;52.240;16.826;2023-03-29T23:32:15;19.58;;;11.25;;
38797;SDS011;24546;52.240;16.826;2023-03-29T23:37:16;20.45;;;11.40;;
38797;SDS011;24546;52.240;16.826;2023-03-29T23:42:17;15.60;;;10.00;;
38797;SDS011;24546;52.240;16.826;2023-03-29T23:47:18;19.20;;;12.35;;
38797;SDS011;24546;52.240;16.826;2023-03-29T23:52:19;21.58;;;11.95;;
38797;SDS011;24546;52.240;16.826;2023-03-29T23:57:20;22.85;;;11.77;;
